createdAt,value
2019-05-03T00:01:32.488Z,24.83
2019-05-03T00:04:08.728Z,23.63
2019-05-03T00:06:44.919Z,22.57
2019-05-03T00:09:22.500Z,23.20
2019-05-03T00:11:58.779Z,21.80
2019-05-03T00:14:36.411Z,19.67
2019-05-03T00:17:12.674Z,19.87
2019-05-03T00:19:48.887Z,19.13
2019-05-03T00:22:25.451Z,21.00
2019-05-03T00:25:05.894Z,19.00
2019-05-03T00:27:39.484Z,21.03
2019-05-03T00:30:15.719Z,19.03
2019-05-03T00:32:52.265Z,19.83
2019-05-03T00:35:45.188Z,20.07
2019-05-03T00:38:21.861Z,19.23
2019-05-03T00:40:58.237Z,19.00
2019-05-03T00:43:34.504Z,20.70
2019-05-03T00:46:12.494Z,20.43
2019-05-03T00:48:50.021Z,19.93
2019-05-03T00:51:26.149Z,19.20
2019-05-03T00:54:02.360Z,18.43
2019-05-03T00:56:38.583Z,18.80
2019-05-03T00:59:14.978Z,19.00
2019-05-03T01:01:52.132Z,17.13
2019-05-03T01:04:28.664Z,19.07
2019-05-03T01:07:04.935Z,19.27
2019-05-03T01:09:42.430Z,18.33
2019-05-03T01:12:18.699Z,17.80
2019-05-03T01:14:56.689Z,18.70
2019-05-03T01:17:34.580Z,17.13
2019-05-03T01:20:11.982Z,19.20
2019-05-03T01:22:48.244Z,18.00
2019-05-03T01:25:32.148Z,18.77
2019-05-03T01:28:02.257Z,19.10
2019-05-03T01:30:38.403Z,17.77
2019-05-03T01:33:14.585Z,17.53
2019-05-03T01:35:51.902Z,16.17
2019-05-03T01:38:28.540Z,18.13
2019-05-03T01:41:04.820Z,18.60
2019-05-03T01:43:41.840Z,17.50
2019-05-03T01:46:18.380Z,16.80
2019-05-03T01:49:12.390Z,16.93
2019-05-03T01:51:53.144Z,17.03
2019-05-03T01:54:29.333Z,16.70
2019-05-03T01:57:06.819Z,16.83
2019-05-03T01:59:43.103Z,15.80
2019-05-03T02:02:26.785Z,15.90
2019-05-03T02:05:07.395Z,15.97
2019-05-03T02:07:43.811Z,14.07
2019-05-03T02:10:20.068Z,14.23
2019-05-03T02:12:56.339Z,13.97
2019-05-03T02:15:32.730Z,13.33
2019-05-03T02:18:09.085Z,13.33
2019-05-03T02:20:45.291Z,13.60
2019-05-03T02:23:22.436Z,12.10
2019-05-03T02:25:59.284Z,10.20
2019-05-03T02:28:35.608Z,11.00
2019-05-03T02:31:13.764Z,11.60
2019-05-03T02:33:49.797Z,10.97
2019-05-03T02:36:26.017Z,11.83
2019-05-03T02:39:02.860Z,10.60
2019-05-03T02:41:39.637Z,9.50
2019-05-03T02:44:17.470Z,10.93
2019-05-03T02:47:07.609Z,9.60
2019-05-03T02:49:45.681Z,10.57
2019-05-03T02:52:36.464Z,9.43
2019-05-03T02:55:15.692Z,8.67
2019-05-03T02:57:50.423Z,8.17
2019-05-03T03:00:46.149Z,7.13
2019-05-03T03:03:22.440Z,6.83
2019-05-03T03:06:00.712Z,7.07
2019-05-03T03:08:38.483Z,7.47
2019-05-03T03:11:17.452Z,7.63
2019-05-03T03:13:56.585Z,8.50
2019-05-03T03:16:36.235Z,7.60
2019-05-03T03:19:15.892Z,8.07
2019-05-03T03:21:56.226Z,8.43
2019-05-03T03:24:36.160Z,7.97
2019-05-03T03:27:16.363Z,8.63
2019-05-03T03:29:55.884Z,7.17
2019-05-03T03:32:38.708Z,8.60
2019-05-03T03:35:21.191Z,6.47
2019-05-03T03:37:55.954Z,7.87
2019-05-03T03:40:31.499Z,7.57
2019-05-03T03:43:09.352Z,8.40
2019-05-03T03:45:47.574Z,7.90
2019-05-03T03:48:26.467Z,7.77
2019-05-03T03:51:05.183Z,7.43
2019-05-03T03:53:46.487Z,7.50
2019-05-03T03:56:25.568Z,7.10
2019-05-03T03:59:02.457Z,6.93
2019-05-03T04:01:38.682Z,7.60
2019-05-03T04:04:16.690Z,6.80
2019-05-03T04:06:55.724Z,6.83
2019-05-03T04:09:30.884Z,6.70
2019-05-03T04:12:07.135Z,7.67
2019-05-03T04:14:47.960Z,7.33
2019-05-03T04:17:45.656Z,7.27
2019-05-03T04:20:25.733Z,7.37
2019-05-03T04:23:01.513Z,8.20
2019-05-03T04:25:37.728Z,8.43
2019-05-03T04:28:16.237Z,7.93
2019-05-03T04:30:51.795Z,7.70
2019-05-03T04:33:27.900Z,7.43
2019-05-03T04:36:05.372Z,7.20
2019-05-03T04:38:42.005Z,6.50
2019-05-03T04:41:18.292Z,6.80
2019-05-03T04:43:55.351Z,6.27
2019-05-03T04:46:31.691Z,5.13
2019-05-03T04:49:07.854Z,5.77
2019-05-03T04:51:46.473Z,5.73
2019-05-03T04:54:29.529Z,4.90
2019-05-03T04:57:06.612Z,5.03
2019-05-03T04:59:45.136Z,5.47
2019-05-03T05:02:20.872Z,5.17
2019-05-03T05:04:57.109Z,5.07
2019-05-03T05:07:35.054Z,5.20
2019-05-03T05:10:11.300Z,5.20
2019-05-03T05:12:47.438Z,7.83
2019-05-03T05:15:26.020Z,10.07
2019-05-03T05:18:19.776Z,6.70
2019-05-03T05:21:04.612Z,5.70
2019-05-03T05:23:44.337Z,5.30
2019-05-03T05:26:22.217Z,6.00
2019-05-03T05:29:12.301Z,5.27
2019-05-03T05:31:48.439Z,5.33
2019-05-03T05:34:24.731Z,6.00
2019-05-03T05:37:00.861Z,5.77
2019-05-03T05:39:37.591Z,5.63
2019-05-03T05:42:14.917Z,7.40
2019-05-03T05:44:51.261Z,7.07
2019-05-03T05:47:29.164Z,7.27
2019-05-03T05:50:08.561Z,5.67
2019-05-03T05:52:44.934Z,6.50
2019-05-03T05:55:28.748Z,5.73
2019-05-03T05:58:08.345Z,5.60
2019-05-03T06:00:46.334Z,6.97
2019-05-03T06:03:22.467Z,7.90
2019-05-03T06:06:00.338Z,6.37
2019-05-03T06:08:46.952Z,6.83
2019-05-03T06:11:31.965Z,7.17
2019-05-03T06:14:12.867Z,6.20
2019-05-03T06:16:56.645Z,6.43
2019-05-03T06:19:37.208Z,8.17
2019-05-03T06:22:17.983Z,6.40
2019-05-03T06:25:06.525Z,8.03
2019-05-03T06:27:42.332Z,6.57
2019-05-03T06:30:25.888Z,6.10
2019-05-03T06:33:02.096Z,6.83
2019-05-03T06:35:38.271Z,6.33
2019-05-03T06:38:15.231Z,6.07
2019-05-03T06:40:51.629Z,5.57
2019-05-03T06:43:27.867Z,6.40
2019-05-03T06:46:05.367Z,5.07
2019-05-03T06:48:41.738Z,5.30
2019-05-03T06:51:20.139Z,5.63
2019-05-03T06:53:55.849Z,6.00
2019-05-03T06:56:32.057Z,6.17
2019-05-03T06:59:26.425Z,5.40
2019-05-03T07:02:05.593Z,6.27
2019-05-03T07:04:58.649Z,4.53
2019-05-03T07:07:36.420Z,5.63
2019-05-03T07:10:29.579Z,5.60
2019-05-03T07:13:08.805Z,5.67
2019-05-03T07:15:45.446Z,6.10
2019-05-03T07:18:21.837Z,5.47
2019-05-03T07:20:58.735Z,6.03
2019-05-03T07:23:35.146Z,5.97
2019-05-03T07:26:11.487Z,5.63
2019-05-03T07:28:50.038Z,6.10
2019-05-03T07:31:25.705Z,6.07
2019-05-03T07:34:01.945Z,6.50
2019-05-03T07:36:38.134Z,6.27
2019-05-03T07:39:14.644Z,6.57
2019-05-03T07:41:52.166Z,6.50
2019-05-03T07:44:28.380Z,6.10
2019-05-03T07:47:04.965Z,5.73
2019-05-03T07:49:41.259Z,6.60
2019-05-03T07:52:17.484Z,6.63
2019-05-03T07:54:55.217Z,6.23
2019-05-03T07:57:36.259Z,5.60
2019-05-03T08:00:14.920Z,6.43
2019-05-03T08:02:51.407Z,6.17
2019-05-03T08:05:27.647Z,6.90
2019-05-03T08:08:04.813Z,6.17
2019-05-03T08:10:41.162Z,6.33
2019-05-03T08:13:17.451Z,6.73
2019-05-03T08:15:55.673Z,6.47
2019-05-03T08:18:31.435Z,7.10
2019-05-03T08:21:07.632Z,6.80
2019-05-03T08:23:45.373Z,9.43
2019-05-03T08:26:21.770Z,9.23
2019-05-03T08:28:58.700Z,6.47
2019-05-03T08:31:36.621Z,8.50
2019-05-03T08:34:15.290Z,7.20
2019-05-03T08:36:57.656Z,6.80
2019-05-03T08:39:35.584Z,7.07
2019-05-03T08:42:14.960Z,5.83
2019-05-03T08:44:55.358Z,6.40
2019-05-03T08:47:29.441Z,5.83
2019-05-03T08:50:07.108Z,5.73
2019-05-03T08:52:45.172Z,5.90
2019-05-03T08:55:21.420Z,8.37
2019-05-03T08:57:59.157Z,5.80
2019-05-03T09:00:38.161Z,8.93
2019-05-03T09:03:24.937Z,6.47
2019-05-03T09:06:04.750Z,5.93
2019-05-03T09:08:41.580Z,6.30
2019-05-03T09:11:30.801Z,9.27
2019-05-03T09:14:00.267Z,7.43
2019-05-03T09:16:36.575Z,9.97
2019-05-03T09:19:14.703Z,6.10
2019-05-03T09:21:51.177Z,5.70
2019-05-03T09:24:27.396Z,5.93
2019-05-03T09:27:05.100Z,5.90
2019-05-03T09:29:44.039Z,10.00
2019-05-03T09:32:19.698Z,12.33
2019-05-03T09:34:55.895Z,14.10
2019-05-03T09:37:32.146Z,8.70
2019-05-03T09:40:08.454Z,8.57
2019-05-03T09:42:44.738Z,9.57
2019-05-03T09:45:21.173Z,12.43
2019-05-03T09:47:57.451Z,11.33
2019-05-03T09:50:35.676Z,11.70
2019-05-03T09:53:12.001Z,12.83
2019-05-03T09:55:48.199Z,10.83
2019-05-03T09:58:26.356Z,6.67
2019-05-03T10:01:05.294Z,13.73
2019-05-03T10:03:40.534Z,9.20
2019-05-03T10:06:17.639Z,10.07
2019-05-03T10:08:54.478Z,6.97
2019-05-03T10:11:35.085Z,4.40
2019-05-03T10:14:10.516Z,6.33
2019-05-03T10:16:56.769Z,5.23
2019-05-03T10:19:39.256Z,4.60
2019-05-03T10:22:12.410Z,4.20
2019-05-03T10:24:48.546Z,4.47
2019-05-03T10:27:25.221Z,4.97
2019-05-03T10:30:12.276Z,4.20
2019-05-03T10:32:40.895Z,3.90
2019-05-03T10:35:17.415Z,3.90
2019-05-03T10:37:54.858Z,4.10
2019-05-03T10:40:31.196Z,4.00
2019-05-03T10:43:09.608Z,3.80
2019-05-03T10:45:45.920Z,3.87
2019-05-03T10:48:22.179Z,4.03
2019-05-03T10:50:58.395Z,4.00
2019-05-03T10:53:38.672Z,4.00
2019-05-03T10:56:22.844Z,3.60
2019-05-03T10:58:58.899Z,4.67
2019-05-03T11:01:36.765Z,3.87
2019-05-03T11:04:14.752Z,3.73
2019-05-03T11:06:50.875Z,6.33
2019-05-03T11:09:27.054Z,5.47
2019-05-03T11:12:05.201Z,5.43
2019-05-03T11:14:41.189Z,7.57
2019-05-03T11:17:17.797Z,3.90
2019-05-03T11:19:54.749Z,4.23
2019-05-03T11:22:31.093Z,3.40
2019-05-03T11:25:07.738Z,3.90
2019-05-03T11:27:45.510Z,5.33
2019-05-03T11:30:21.739Z,3.23
2019-05-03T11:33:02.564Z,3.53
2019-05-03T11:35:46.155Z,3.90
2019-05-03T11:38:25.416Z,4.70
2019-05-03T11:41:01.848Z,3.07
2019-05-03T11:43:38.091Z,3.50
2019-05-03T11:46:14.332Z,3.10
2019-05-03T11:48:50.571Z,2.97
2019-05-03T11:51:26.793Z,3.90
2019-05-03T11:54:05.748Z,3.50
2019-05-03T11:56:41.369Z,3.20
2019-05-03T11:59:17.616Z,3.40
2019-05-03T12:01:55.414Z,3.53
2019-05-03T12:04:31.731Z,3.00
2019-05-03T12:07:07.970Z,3.20
2019-05-03T12:09:45.209Z,3.03
2019-05-03T12:12:26.187Z,3.87
2019-05-03T12:15:04.273Z,3.07
2019-05-03T12:17:51.947Z,3.07
2019-05-03T12:20:21.900Z,3.40
2019-05-03T12:22:59.144Z,3.60
2019-05-03T12:25:36.567Z,2.87
2019-05-03T12:28:15.161Z,3.43
2019-05-03T12:30:51.139Z,3.43
2019-05-03T12:33:27.367Z,4.43
2019-05-03T12:36:05.326Z,3.53
2019-05-03T12:38:41.511Z,3.07
2019-05-03T12:41:17.760Z,2.83
2019-05-03T12:43:55.177Z,5.40
2019-05-03T12:46:31.537Z,4.07
2019-05-03T12:49:07.663Z,6.97
2019-05-03T12:51:45.317Z,7.60
2019-05-03T12:54:21.665Z,3.50
2019-05-03T12:56:57.918Z,3.63
2019-05-03T12:59:36.025Z,3.40
2019-05-03T13:02:19.713Z,3.13
2019-05-03T13:04:56.028Z,3.27
2019-05-03T13:07:36.990Z,3.20
2019-05-03T13:10:13.326Z,3.50
2019-05-03T13:12:53.179Z,2.90
2019-05-03T13:15:27.520Z,3.40
2019-05-03T13:18:04.980Z,4.70
2019-05-03T13:20:41.420Z,3.20
2019-05-03T13:23:17.639Z,3.87
2019-05-03T13:25:53.806Z,3.60
2019-05-03T13:28:30.022Z,3.20
2019-05-03T13:31:06.294Z,3.13
2019-05-03T13:33:42.480Z,3.30
2019-05-03T13:36:18.649Z,2.97
2019-05-03T13:39:09.866Z,3.33
2019-05-03T13:41:34.964Z,3.13
2019-05-03T13:44:11.348Z,3.10
2019-05-03T13:46:47.602Z,3.27
2019-05-03T13:49:26.220Z,3.90
2019-05-03T13:52:01.773Z,3.80
2019-05-03T13:54:37.993Z,3.53
2019-05-03T13:57:15.425Z,3.67
2019-05-03T13:59:51.856Z,3.60
2019-05-03T14:02:28.225Z,3.73
2019-05-03T14:05:06.851Z,3.77
2019-05-03T14:07:44.665Z,3.33
2019-05-03T14:10:20.988Z,4.17
2019-05-03T14:12:57.269Z,3.93
2019-05-03T14:15:34.806Z,3.20
2019-05-03T14:18:11.271Z,3.83
2019-05-03T14:20:57.744Z,3.33
2019-05-03T14:23:35.564Z,3.53
2019-05-03T14:26:11.697Z,3.43
2019-05-03T14:28:47.969Z,3.30
2019-05-03T14:31:25.200Z,3.17
2019-05-03T14:34:01.625Z,3.17
2019-05-03T14:36:37.924Z,3.57
2019-05-03T14:39:15.022Z,3.23
2019-05-03T14:41:51.584Z,3.13
2019-05-03T14:44:27.921Z,3.90
2019-05-03T14:47:05.766Z,3.93
2019-05-03T14:49:42.228Z,3.53
2019-05-03T14:52:18.581Z,5.00
2019-05-03T14:54:56.573Z,4.57
2019-05-03T14:57:35.098Z,3.70
2019-05-03T15:00:18.623Z,3.37
2019-05-03T15:02:57.965Z,3.37
2019-05-03T15:05:35.036Z,3.07
2019-05-03T15:08:11.289Z,2.97
2019-05-03T15:10:47.649Z,3.37
2019-05-03T15:13:25.092Z,3.40
2019-05-03T15:16:01.640Z,3.07
2019-05-03T15:18:37.930Z,3.27
2019-05-03T15:21:14.584Z,3.57
2019-05-03T15:23:51.005Z,3.07
2019-05-03T15:26:27.274Z,3.30
2019-05-03T15:29:04.838Z,3.37
2019-05-03T15:31:41.162Z,3.10
2019-05-03T15:34:17.412Z,3.80
2019-05-03T15:36:54.694Z,3.23
2019-05-03T15:39:31.074Z,2.83
2019-05-03T15:42:07.373Z,2.97
2019-05-03T15:45:01.408Z,3.60
2019-05-03T15:47:42.273Z,3.13
2019-05-03T15:52:55.072Z,2.90
2019-05-03T15:55:31.366Z,3.50
2019-05-03T15:58:07.498Z,2.97
2019-05-03T16:00:44.549Z,6.60
2019-05-03T16:03:20.975Z,8.20
2019-05-03T16:05:57.213Z,4.87
2019-05-03T16:08:33.521Z,3.43
2019-05-03T16:11:09.780Z,6.27
2019-05-03T16:13:45.972Z,5.60
2019-05-03T16:16:22.189Z,6.10
2019-05-03T16:18:59.116Z,5.07
2019-05-03T16:21:36.768Z,9.47
2019-05-03T16:24:13.180Z,4.67
2019-05-03T16:27:06.094Z,4.50
2019-05-03T16:29:45.913Z,3.80
2019-05-03T16:32:20.335Z,3.67
2019-05-03T16:34:56.598Z,3.00
2019-05-03T16:37:34.449Z,3.77
2019-05-03T16:40:10.865Z,3.33
2019-05-03T16:42:47.118Z,2.60
2019-05-03T16:45:25.490Z,3.57
2019-05-03T16:48:01.308Z,3.17
2019-05-03T16:50:37.739Z,3.50
2019-05-03T16:53:14.784Z,3.20
2019-05-03T16:55:51.972Z,3.60
2019-05-03T16:58:28.179Z,3.10
2019-05-03T17:01:04.420Z,2.93
2019-05-03T17:03:42.298Z,3.47
2019-05-03T17:06:20.183Z,3.30
2019-05-03T17:09:01.092Z,3.57
2019-05-03T17:11:37.448Z,3.70
2019-05-03T17:14:15.453Z,3.10
2019-05-03T17:16:51.492Z,2.97
2019-05-03T17:19:27.734Z,3.00
2019-05-03T17:22:05.572Z,3.13
2019-05-03T17:24:42.079Z,3.20
2019-05-03T17:27:18.409Z,3.93
2019-05-03T17:29:55.227Z,3.10
2019-05-03T17:32:31.719Z,3.57
2019-05-03T17:35:07.998Z,3.30
2019-05-03T17:37:45.148Z,3.53
2019-05-03T17:40:25.894Z,3.10
2019-05-03T17:43:05.054Z,4.00
2019-05-03T17:45:45.650Z,4.07
2019-05-03T17:48:21.949Z,4.00
2019-05-03T17:50:58.071Z,3.80
2019-05-03T17:53:35.954Z,3.47
2019-05-03T17:56:19.820Z,3.43
2019-05-03T17:59:00.564Z,4.17
2019-05-03T18:01:44.619Z,3.43
2019-05-03T18:04:22.543Z,3.60
2019-05-03T18:07:00.408Z,3.90
2019-05-03T18:09:41.074Z,3.80
2019-05-03T18:12:17.205Z,4.20
2019-05-03T18:14:55.317Z,4.40
2019-05-03T18:17:31.285Z,3.80
2019-05-03T18:20:07.649Z,4.07
2019-05-03T18:22:43.795Z,4.33
2019-05-03T18:25:20.068Z,3.80
2019-05-03T18:27:56.213Z,4.17
2019-05-03T18:30:32.383Z,3.97
2019-05-03T18:33:08.668Z,3.67
2019-05-03T18:35:44.971Z,3.70
2019-05-03T18:38:25.125Z,3.90
2019-05-03T18:41:01.470Z,3.53
2019-05-03T18:43:42.508Z,4.00
2019-05-03T18:46:23.212Z,4.23
2019-05-03T18:48:59.484Z,3.67
2019-05-03T18:51:35.716Z,3.90
2019-05-03T18:54:11.949Z,3.70
2019-05-03T18:56:48.177Z,4.03
2019-05-03T18:59:24.339Z,3.77
2019-05-03T19:02:00.580Z,3.60
2019-05-03T19:04:41.152Z,3.93
2019-05-03T19:07:35.426Z,3.83
2019-05-03T19:10:16.096Z,4.10
2019-05-03T19:12:57.092Z,3.40
2019-05-03T19:15:34.563Z,3.57
2019-05-03T19:18:12.588Z,4.10
2019-05-03T19:20:48.793Z,4.10
2019-05-03T19:23:25.072Z,4.20
2019-05-03T19:26:01.348Z,4.10
2019-05-03T19:28:37.495Z,3.70
2019-05-03T19:31:14.301Z,3.87
2019-05-03T19:33:50.575Z,12.57
2019-05-03T19:36:26.794Z,8.37
2019-05-03T19:39:04.937Z,5.47
2019-05-03T19:41:40.881Z,4.87
2019-05-03T19:44:17.104Z,4.43
2019-05-03T19:46:53.249Z,4.00
2019-05-03T19:49:29.568Z,4.10
2019-05-03T19:52:05.805Z,4.17
2019-05-03T19:54:42.070Z,4.40
2019-05-03T19:57:19.948Z,4.30
2019-05-03T19:59:56.967Z,4.27
2019-05-03T20:02:37.759Z,4.53
2019-05-03T20:05:21.476Z,4.30
2019-05-03T20:07:59.324Z,4.50
2019-05-03T20:10:35.628Z,5.00
2019-05-03T20:13:11.812Z,5.23
2019-05-03T20:15:48.039Z,6.03
2019-05-03T20:18:24.395Z,10.93
2019-05-03T20:21:00.608Z,43.50
2019-05-03T20:23:36.852Z,28.43
2019-05-03T20:26:14.938Z,19.50
2019-05-03T20:28:50.984Z,20.97
2019-05-03T20:31:27.209Z,7.87
2019-05-03T20:34:05.745Z,9.40
2019-05-03T20:36:41.885Z,9.53
2019-05-03T20:39:18.071Z,7.83
2019-05-03T20:41:54.990Z,7.47
2019-05-03T20:44:35.952Z,7.40
2019-05-03T20:47:19.183Z,7.70
2019-05-03T20:49:57.095Z,7.47
2019-05-03T20:52:35.140Z,8.30
2019-05-03T20:55:11.355Z,7.67
2019-05-03T20:57:47.670Z,9.37
2019-05-03T21:00:26.276Z,8.03
2019-05-03T21:03:02.452Z,7.60
2019-05-03T21:05:38.682Z,6.33
2019-05-03T21:08:14.930Z,6.53
2019-05-03T21:10:51.120Z,7.43
2019-05-03T21:13:39.163Z,6.83
2019-05-03T21:16:23.531Z,6.13
2019-05-03T21:19:01.359Z,6.73
2019-05-03T21:21:47.866Z,8.07
2019-05-03T21:24:40.536Z,7.23
2019-05-03T21:27:16.719Z,7.60
2019-05-03T21:29:55.155Z,13.63
2019-05-03T21:32:31.154Z,8.00
2019-05-03T21:35:07.789Z,8.10
2019-05-03T21:37:45.376Z,9.03
2019-05-03T21:40:21.792Z,8.93
2019-05-03T21:42:58.073Z,10.23
2019-05-03T21:45:35.909Z,8.93
2019-05-03T21:48:14.606Z,9.43
2019-05-03T21:50:50.944Z,9.13
2019-05-03T21:53:27.254Z,8.70
2019-05-03T21:56:03.387Z,10.10
2019-05-03T21:58:40.891Z,10.77
2019-05-03T22:01:18.113Z,10.40
2019-05-03T22:03:54.320Z,9.83
2019-05-03T22:06:30.549Z,10.37
2019-05-03T22:09:07.264Z,9.93
2019-05-03T22:11:44.680Z,10.37
2019-05-03T22:14:24.387Z,10.47
2019-05-03T22:17:18.141Z,10.63
2019-05-03T22:19:55.974Z,10.50
2019-05-03T22:22:45.690Z,10.17
2019-05-03T22:25:24.440Z,9.67
2019-05-03T22:28:00.722Z,10.63
2019-05-03T22:30:38.137Z,10.87
2019-05-03T22:33:14.555Z,10.23
2019-05-03T22:36:05.961Z,10.37
2019-05-03T22:38:30.369Z,10.47
2019-05-03T22:41:06.547Z,10.53
2019-05-03T22:43:42.757Z,11.03
2019-05-03T22:46:18.934Z,11.50
2019-05-03T22:48:55.243Z,11.07
2019-05-03T22:51:31.512Z,9.77
2019-05-03T22:54:07.699Z,11.13
2019-05-03T22:56:44.792Z,10.97
2019-05-03T22:59:21.280Z,10.77
2019-05-03T23:01:57.425Z,11.33
2019-05-03T23:04:35.467Z,11.23
2019-05-03T23:07:11.651Z,12.37
2019-05-03T23:09:47.832Z,12.73
2019-05-03T23:12:24.008Z,12.17
2019-05-03T23:15:00.297Z,12.87
2019-05-03T23:17:36.539Z,13.50
2019-05-03T23:20:30.342Z,13.13
2019-05-03T23:23:06.657Z,12.50
2019-05-03T23:25:44.826Z,13.63
2019-05-03T23:28:20.821Z,14.67
2019-05-03T23:30:57.079Z,14.50
2019-05-03T23:33:34.494Z,14.20
2019-05-03T23:36:11.231Z,13.67
2019-05-03T23:38:47.364Z,14.43
2019-05-03T23:41:24.550Z,13.47
2019-05-03T23:44:00.994Z,14.83
2019-05-03T23:46:47.366Z,14.83
2019-05-03T23:49:25.044Z,15.77
2019-05-03T23:52:04.488Z,15.67
2019-05-03T23:54:40.777Z,15.10
2019-05-03T23:57:17.264Z,15.10
2019-05-03T23:59:55.019Z,15.87
